IGO104 OEJN-VABB
Flight info
| Callsign | IGO104 |
|---|---|
| Flight time | N/A |
| Altitude | 37000 |
| Route | EGPOB V31 BSH L425 AMBIT DCT ASTIN DCT GOBRO L425 ASPUX T208 BOLUR |
| Aircraft | A20N/M-SDGHIRWXY/LB1D1 |
Departure
| Time | 2026-04-30 10:08 |
|---|---|
| Airport | King Abdulaziz International Airport (OEJN) |
Arrival
| Time | N/A |
|---|---|
| Airport | Chhatrapati Shivaji Maharaj International Airport (VABB) |
| Time | Latitude | Longitude | Altitude | Speed | Heading |
|---|---|---|---|---|---|
| 2026-04-30 09:31 | 21.69059 | 39.13677 | 55 ft | 0 kts | 69° |
| 2026-04-30 09:45 | 21.69055 | 39.13668 | 55 ft | 2 kts | 59° |
| 2026-04-30 09:45 | 21.69048 | 39.13654 | 55 ft | 2 kts | 65° |
| 2026-04-30 09:46 | 21.69042 | 39.13641 | 55 ft | 0 kts | 63° |
| 2026-04-30 09:46 | 21.69040 | 39.13636 | 55 ft | 0 kts | 104° |
| 2026-04-30 09:46 | 21.69042 | 39.13631 | 55 ft | 0 kts | 153° |
| 2026-04-30 09:46 | 21.69047 | 39.13630 | 55 ft | 1 kts | 162° |
| 2026-04-30 09:47 | 21.69049 | 39.13629 | 55 ft | 0 kts | 160° |
| 2026-04-30 09:52 | 21.69045 | 39.13631 | 55 ft | 1 kts | 160° |
| 2026-04-30 09:52 | 21.69028 | 39.13637 | 55 ft | 3 kts | 164° |
| 2026-04-30 09:53 | 21.69009 | 39.13638 | 55 ft | 3 kts | 193° |
| 2026-04-30 09:53 | 21.68988 | 39.13621 | 55 ft | 4 kts | 237° |
| 2026-04-30 09:53 | 21.68976 | 39.13588 | 55 ft | 5 kts | 249° |
| 2026-04-30 09:53 | 21.68960 | 39.13555 | 55 ft | 5 kts | 230° |
| 2026-04-30 09:54 | 21.68913 | 39.13538 | 55 ft | 9 kts | 169° |
| 2026-04-30 09:54 | 21.68851 | 39.13560 | 55 ft | 2 kts | 161° |
| 2026-04-30 09:54 | 21.68847 | 39.13561 | 55 ft | 1 kts | 161° |
| 2026-04-30 09:54 | 21.68833 | 39.13567 | 55 ft | 2 kts | 161° |
| 2026-04-30 09:55 | 21.68809 | 39.13575 | 55 ft | 4 kts | 160° |
| 2026-04-30 09:55 | 21.68777 | 39.13589 | 55 ft | 6 kts | 159° |
| 2026-04-30 09:55 | 21.68721 | 39.13612 | 55 ft | 10 kts | 159° |
| 2026-04-30 09:55 | 21.68638 | 39.13644 | 55 ft | 14 kts | 160° |
| 2026-04-30 09:56 | 21.68544 | 39.13680 | 55 ft | 14 kts | 159° |
| 2026-04-30 09:56 | 21.68447 | 39.13720 | 55 ft | 14 kts | 159° |
| 2026-04-30 09:56 | 21.68348 | 39.13760 | 55 ft | 15 kts | 160° |
| 2026-04-30 09:56 | 21.68265 | 39.13798 | 55 ft | 12 kts | 139° |
| 2026-04-30 09:57 | 21.68255 | 39.13870 | 55 ft | 10 kts | 65° |
| 2026-04-30 09:57 | 21.68285 | 39.13947 | 55 ft | 11 kts | 68° |
| 2026-04-30 09:57 | 21.68313 | 39.14028 | 55 ft | 11 kts | 70° |
| 2026-04-30 09:57 | 21.68344 | 39.14119 | 55 ft | 13 kts | 70° |
| 2026-04-30 09:58 | 21.68380 | 39.14221 | 55 ft | 15 kts | 70° |
| 2026-04-30 09:58 | 21.68419 | 39.14335 | 56 ft | 16 kts | 69° |
| 2026-04-30 09:58 | 21.68461 | 39.14457 | 56 ft | 18 kts | 70° |
| 2026-04-30 09:58 | 21.68506 | 39.14588 | 56 ft | 19 kts | 70° |
| 2026-04-30 09:59 | 21.68605 | 39.14873 | 56 ft | 21 kts | 70° |
| 2026-04-30 09:59 | 21.68702 | 39.15155 | 56 ft | 16 kts | 70° |
| 2026-04-30 10:00 | 21.68660 | 39.15271 | 56 ft | 10 kts | 159° |
| 2026-04-30 10:00 | 21.68590 | 39.15299 | 56 ft | 11 kts | 160° |
| 2026-04-30 10:01 | 21.68434 | 39.15360 | 56 ft | 12 kts | 160° |
| 2026-04-30 10:01 | 21.68349 | 39.15394 | 56 ft | 13 kts | 159° |
| 2026-04-30 10:01 | 21.68263 | 39.15429 | 56 ft | 13 kts | 160° |
| 2026-04-30 10:02 | 21.68146 | 39.15474 | 56 ft | 9 kts | 159° |
| 2026-04-30 10:02 | 21.68039 | 39.15517 | 56 ft | 15 kts | 160° |
| 2026-04-30 10:02 | 21.67967 | 39.15544 | 56 ft | 17 kts | 160° |
| 2026-04-30 10:02 | 21.67840 | 39.15595 | 56 ft | 21 kts | 159° |
| 2026-04-30 10:03 | 21.67692 | 39.15654 | 56 ft | 23 kts | 159° |
| 2026-04-30 10:03 | 21.67527 | 39.15719 | 56 ft | 26 kts | 160° |
| 2026-04-30 10:03 | 21.67349 | 39.15789 | 56 ft | 28 kts | 159° |
| 2026-04-30 10:03 | 21.67161 | 39.15863 | 56 ft | 26 kts | 160° |
| 2026-04-30 10:04 | 21.66991 | 39.15930 | 56 ft | 25 kts | 160° |
| 2026-04-30 10:04 | 21.66825 | 39.15992 | 56 ft | 24 kts | 160° |
| 2026-04-30 10:04 | 21.66671 | 39.16056 | 56 ft | 23 kts | 160° |
| 2026-04-30 10:04 | 21.66521 | 39.16116 | 56 ft | 22 kts | 159° |
| 2026-04-30 10:05 | 21.66396 | 39.16165 | 56 ft | 13 kts | 157° |
| 2026-04-30 10:05 | 21.66306 | 39.16202 | 56 ft | 13 kts | 161° |
| 2026-04-30 10:05 | 21.66213 | 39.16237 | 56 ft | 14 kts | 160° |
| 2026-04-30 10:05 | 21.66124 | 39.16272 | 56 ft | 9 kts | 160° |
| 2026-04-30 10:06 | 21.66081 | 39.16320 | 56 ft | 9 kts | 97° |
| 2026-04-30 10:06 | 21.66099 | 39.16394 | 56 ft | 10 kts | 70° |
| 2026-04-30 10:06 | 21.66136 | 39.16462 | 56 ft | 10 kts | 27° |
| 2026-04-30 10:06 | 21.66212 | 39.16454 | 56 ft | 11 kts | 340° |
| 2026-04-30 10:07 | 21.66356 | 39.16397 | 56 ft | 50 kts | 340° |
| 2026-04-30 10:07 | 21.66905 | 39.16179 | 56 ft | 116 kts | 340° |
| 2026-04-30 10:07 | 21.67858 | 39.15798 | 57 ft | 171 kts | 338° |
| 2026-04-30 10:07 | 21.69015 | 39.15334 | 583 ft | 176 kts | 339° |
| 2026-04-30 10:08 | 21.70125 | 39.14909 | 1398 ft | 170 kts | 340° |
| 2026-04-30 10:08 | 21.71245 | 39.14471 | 2044 ft | 175 kts | 340° |
| 2026-04-30 10:08 | 21.72421 | 39.14008 | 2445 ft | 186 kts | 340° |
| 2026-04-30 10:08 | 21.73672 | 39.13516 | 2742 ft | 199 kts | 340° |
| 2026-04-30 10:09 | 21.75041 | 39.12976 | 3033 ft | 214 kts | 340° |
| 2026-04-30 10:09 | 21.76502 | 39.12400 | 3243 ft | 234 kts | 340° |
| 2026-04-30 10:09 | 21.78093 | 39.11774 | 3566 ft | 251 kts | 339° |
| 2026-04-30 10:09 | 21.79780 | 39.11109 | 4027 ft | 262 kts | 339° |
| 2026-04-30 10:10 | 21.81504 | 39.10429 | 4654 ft | 266 kts | 339° |
| 2026-04-30 10:10 | 21.83265 | 39.09734 | 5292 ft | 270 kts | 339° |
| 2026-04-30 10:10 | 21.85039 | 39.09032 | 5898 ft | 275 kts | 339° |
| 2026-04-30 10:10 | 21.86854 | 39.08314 | 6541 ft | 279 kts | 338° |
| 2026-04-30 10:11 | 21.88687 | 39.07590 | 7192 ft | 282 kts | 338° |
| 2026-04-30 10:11 | 21.90521 | 39.06800 | 7839 ft | 284 kts | 334° |
| 2026-04-30 10:11 | 21.92263 | 39.05856 | 8458 ft | 284 kts | 319° |
| 2026-04-30 10:11 | 21.93438 | 39.04207 | 9045 ft | 280 kts | 286° |
| 2026-04-30 10:12 | 21.93653 | 39.02163 | 9719 ft | 276 kts | 262° |
| 2026-04-30 10:12 | 21.93074 | 39.00213 | 10279 ft | 279 kts | 240° |
| 2026-04-30 10:12 | 21.91830 | 38.98548 | 10595 ft | 293 kts | 228° |
| 2026-04-30 10:12 | 21.90374 | 38.96891 | 10858 ft | 308 kts | 229° |
| 2026-04-30 10:13 | 21.88887 | 38.95159 | 11102 ft | 323 kts | 229° |
| 2026-04-30 10:13 | 21.86814 | 38.92705 | 11433 ft | 341 kts | 230° |
| 2026-04-30 10:13 | 21.85744 | 38.91427 | 11589 ft | 349 kts | 230° |
| 2026-04-30 10:13 | 21.84118 | 38.89481 | 11957 ft | 356 kts | 230° |
| 2026-04-30 10:14 | 21.82446 | 38.87482 | 12493 ft | 358 kts | 230° |
| 2026-04-30 10:14 | 21.80573 | 38.85699 | 13007 ft | 364 kts | 213° |
| 2026-04-30 10:14 | 21.75582 | 38.84706 | 13991 ft | 382 kts | 172° |
| 2026-04-30 10:15 | 21.73035 | 38.85577 | 14462 ft | 388 kts | 162° |
| 2026-04-30 10:15 | 21.70502 | 38.86631 | 14876 ft | 392 kts | 162° |
| 2026-04-30 10:15 | 21.67951 | 38.87690 | 15316 ft | 396 kts | 162° |
| 2026-04-30 10:15 | 21.65365 | 38.88757 | 15693 ft | 401 kts | 162° |
| 2026-04-30 10:16 | 21.62727 | 38.89842 | 16110 ft | 404 kts | 162° |
| 2026-04-30 10:16 | 21.60077 | 38.90926 | 16541 ft | 407 kts | 162° |
| 2026-04-30 10:16 | 21.57413 | 38.92014 | 16974 ft | 410 kts | 162° |
| 2026-04-30 10:17 | 21.52032 | 38.94211 | 17834 ft | 416 kts | 162° |
| 2026-04-30 10:17 | 21.46633 | 38.96414 | 18762 ft | 420 kts | 162° |
| 2026-04-30 10:17 | 21.43887 | 38.97532 | 19207 ft | 422 kts | 162° |
| 2026-04-30 10:18 | 21.41131 | 38.98654 | 19655 ft | 424 kts | 162° |
| 2026-04-30 10:18 | 21.38366 | 38.99778 | 19876 ft | 425 kts | 162° |
| 2026-04-30 10:18 | 21.35592 | 39.00907 | 19890 ft | 424 kts | 162° |
| 2026-04-30 10:19 | 21.30059 | 39.03155 | 19876 ft | 424 kts | 162° |
| 2026-04-30 10:19 | 21.27296 | 39.04278 | 19879 ft | 424 kts | 162° |
| 2026-04-30 10:19 | 21.24548 | 39.05395 | 19891 ft | 424 kts | 162° |
| 2026-04-30 10:19 | 21.21788 | 39.06550 | 19885 ft | 425 kts | 158° |
| 2026-04-30 10:20 | 21.19324 | 39.08295 | 19866 ft | 431 kts | 138° |
| 2026-04-30 10:20 | 21.16498 | 39.13950 | 19910 ft | 441 kts | 101° |
| 2026-04-30 10:20 | 21.16021 | 39.17173 | 20278 ft | 445 kts | 99° |
| 2026-04-30 10:21 | 21.15552 | 39.20457 | 20740 ft | 447 kts | 99° |
| 2026-04-30 10:21 | 21.15062 | 39.23770 | 21146 ft | 449 kts | 100° |
| 2026-04-30 10:21 | 21.14558 | 39.27057 | 21535 ft | 452 kts | 101° |
| 2026-04-30 10:21 | 21.14037 | 39.30375 | 21975 ft | 455 kts | 101° |
| 2026-04-30 10:22 | 21.13505 | 39.33722 | 22377 ft | 457 kts | 101° |
| 2026-04-30 10:22 | 21.12974 | 39.37045 | 22777 ft | 459 kts | 101° |
| 2026-04-30 10:22 | 21.12432 | 39.40430 | 23131 ft | 463 kts | 101° |
| 2026-04-30 10:22 | 21.11887 | 39.43823 | 23436 ft | 466 kts | 101° |
| 2026-04-30 10:23 | 21.11337 | 39.47255 | 23711 ft | 470 kts | 101° |
| 2026-04-30 10:23 | 21.10683 | 39.50690 | 23992 ft | 472 kts | 108° |
| 2026-04-30 10:23 | 21.09543 | 39.53977 | 24268 ft | 472 kts | 118° |
| 2026-04-30 10:23 | 21.07897 | 39.57021 | 24553 ft | 470 kts | 128° |
| 2026-04-30 10:24 | 21.05964 | 39.59801 | 24812 ft | 472 kts | 131° |
| 2026-04-30 10:24 | 21.03929 | 39.62585 | 25060 ft | 475 kts | 131° |
| 2026-04-30 10:24 | 21.01882 | 39.65385 | 25283 ft | 478 kts | 132° |
| 2026-04-30 10:24 | 20.99861 | 39.68193 | 25522 ft | 481 kts | 131° |
| 2026-04-30 10:25 | 20.97819 | 39.71061 | 25752 ft | 484 kts | 131° |
| 2026-04-30 10:25 | 20.95775 | 39.73938 | 25961 ft | 486 kts | 131° |
| 2026-04-30 10:25 | 20.93819 | 39.76920 | 26167 ft | 492 kts | 126° |
| 2026-04-30 10:25 | 20.92127 | 39.80121 | 26374 ft | 497 kts | 120° |
| 2026-04-30 10:26 | 20.90753 | 39.83483 | 26561 ft | 503 kts | 114° |
| 2026-04-30 10:26 | 20.89530 | 39.87029 | 26745 ft | 506 kts | 112° |
| 2026-04-30 10:26 | 20.88353 | 39.90543 | 26946 ft | 508 kts | 112° |
| 2026-04-30 10:26 | 20.86771 | 39.95285 | 27380 ft | 506 kts | 112° |
| 2026-04-30 10:27 | 20.85990 | 39.97620 | 27543 ft | 506 kts | 112° |
| 2026-04-30 10:27 | 20.84790 | 40.01192 | 27736 ft | 508 kts | 113° |
| 2026-04-30 10:27 | 20.83598 | 40.04726 | 27898 ft | 511 kts | 113° |
| 2026-04-30 10:27 | 20.82386 | 40.08313 | 28073 ft | 513 kts | 113° |
| 2026-04-30 10:28 | 20.81182 | 40.11871 | 28296 ft | 513 kts | 113° |
| 2026-04-30 10:28 | 20.79969 | 40.15456 | 28552 ft | 513 kts | 113° |
| 2026-04-30 10:28 | 20.78764 | 40.19009 | 28809 ft | 513 kts | 113° |
| 2026-04-30 10:28 | 20.77541 | 40.22610 | 29104 ft | 512 kts | 113° |
| 2026-04-30 10:29 | 20.76324 | 40.26196 | 29439 ft | 511 kts | 113° |
| 2026-04-30 10:29 | 20.75130 | 40.29709 | 29769 ft | 509 kts | 113° |
| 2026-04-30 10:29 | 20.73925 | 40.33256 | 30118 ft | 507 kts | 113° |
| 2026-04-30 10:29 | 20.72729 | 40.36769 | 30466 ft | 505 kts | 113° |
| 2026-04-30 10:30 | 20.71529 | 40.40298 | 30848 ft | 502 kts | 113° |
| 2026-04-30 10:30 | 20.70336 | 40.43800 | 31225 ft | 499 kts | 113° |
| 2026-04-30 10:30 | 20.69167 | 40.47227 | 31570 ft | 497 kts | 113° |
| 2026-04-30 10:30 | 20.67978 | 40.50707 | 31899 ft | 495 kts | 113° |
| 2026-04-30 10:31 | 20.66817 | 40.54107 | 32223 ft | 493 kts | 113° |
| 2026-04-30 10:31 | 20.65640 | 40.57549 | 32517 ft | 491 kts | 113° |
| 2026-04-30 10:31 | 20.64467 | 40.60976 | 32850 ft | 489 kts | 113° |
| 2026-04-30 10:31 | 20.63314 | 40.64343 | 33171 ft | 487 kts | 113° |
| 2026-04-30 10:32 | 20.62157 | 40.67727 | 33465 ft | 486 kts | 113° |
| 2026-04-30 10:32 | 20.60992 | 40.71144 | 33755 ft | 484 kts | 113° |
| 2026-04-30 10:32 | 20.59848 | 40.74495 | 34022 ft | 483 kts | 113° |
| 2026-04-30 10:32 | 20.58705 | 40.77837 | 34259 ft | 482 kts | 114° |
| 2026-04-30 10:33 | 20.57559 | 40.81179 | 34515 ft | 480 kts | 114° |
| 2026-04-30 10:33 | 20.56415 | 40.84512 | 34772 ft | 479 kts | 113° |
| 2026-04-30 10:33 | 20.55263 | 40.87861 | 35011 ft | 477 kts | 113° |
| 2026-04-30 10:33 | 20.54125 | 40.91166 | 35239 ft | 476 kts | 113° |
| 2026-04-30 10:34 | 20.52988 | 40.94465 | 35450 ft | 475 kts | 113° |
| 2026-04-30 10:34 | 20.51847 | 40.97771 | 35621 ft | 475 kts | 113° |
| 2026-04-30 10:34 | 20.50700 | 41.01093 | 35792 ft | 475 kts | 113° |
| 2026-04-30 10:34 | 20.49567 | 41.04379 | 35959 ft | 474 kts | 113° |
| 2026-04-30 10:35 | 20.48430 | 41.07669 | 36132 ft | 473 kts | 113° |
| 2026-04-30 10:35 | 20.47292 | 41.10960 | 36275 ft | 473 kts | 113° |
| 2026-04-30 10:35 | 20.46166 | 41.14216 | 36418 ft | 473 kts | 113° |
| 2026-04-30 10:35 | 20.45032 | 41.17497 | 36587 ft | 472 kts | 113° |
| 2026-04-30 10:36 | 20.43889 | 41.20799 | 36763 ft | 471 kts | 113° |
| 2026-04-30 10:36 | 20.42764 | 41.24052 | 36909 ft | 470 kts | 113° |
| 2026-04-30 10:36 | 20.41630 | 41.27323 | 37030 ft | 470 kts | 113° |
| 2026-04-30 10:36 | 20.40499 | 41.30586 | 37129 ft | 470 kts | 113° |
| 2026-04-30 10:37 | 20.38232 | 41.37115 | 37204 ft | 472 kts | 113° |
| 2026-04-30 10:37 | 20.35582 | 41.44740 | 37209 ft | 472 kts | 113° |
| 2026-04-30 10:38 | 20.33301 | 41.51292 | 37229 ft | 471 kts | 113° |
| 2026-04-30 10:38 | 20.31404 | 41.56744 | 37219 ft | 470 kts | 113° |
| 2026-04-30 10:39 | 20.29142 | 41.63229 | 37237 ft | 469 kts | 112° |
| 2026-04-30 10:39 | 20.27041 | 41.69838 | 37217 ft | 470 kts | 111° |
| 2026-04-30 10:40 | 20.25008 | 41.76434 | 37217 ft | 470 kts | 111° |
| 2026-04-30 10:40 | 20.22965 | 41.82991 | 37224 ft | 468 kts | 111° |
| 2026-04-30 10:41 | 20.20902 | 41.89566 | 37232 ft | 467 kts | 112° |
| 2026-04-30 10:41 | 20.18843 | 41.96101 | 37238 ft | 467 kts | 111° |
| 2026-04-30 10:42 | 20.16773 | 42.02662 | 37254 ft | 467 kts | 111° |
| 2026-04-30 10:42 | 20.14715 | 42.09179 | 37248 ft | 468 kts | 112° |
| 2026-04-30 10:43 | 20.12645 | 42.15725 | 37245 ft | 466 kts | 112° |
| 2026-04-30 10:43 | 20.10580 | 42.22247 | 37234 ft | 466 kts | 112° |
| 2026-04-30 10:44 | 20.08504 | 42.28785 | 37216 ft | 467 kts | 112° |
| 2026-04-30 10:44 | 20.06436 | 42.35294 | 37195 ft | 466 kts | 111° |
| 2026-04-30 10:45 | 20.04365 | 42.41809 | 37175 ft | 466 kts | 112° |
| 2026-04-30 10:45 | 20.02281 | 42.48346 | 37155 ft | 466 kts | 111° |
| 2026-04-30 10:46 | 20.00263 | 42.54890 | 37138 ft | 468 kts | 107° |
| 2026-04-30 10:46 | 19.99149 | 42.61681 | 37132 ft | 472 kts | 96° |
| 2026-04-30 10:47 | 19.99275 | 42.68714 | 37130 ft | 476 kts | 84° |
| 2026-04-30 10:47 | 20.00527 | 42.75578 | 37129 ft | 477 kts | 78° |
| 2026-04-30 10:48 | 20.02042 | 42.82433 | 37128 ft | 478 kts | 78° |
| 2026-04-30 10:48 | 20.03524 | 42.89325 | 37124 ft | 478 kts | 78° |
| 2026-04-30 10:49 | 20.04984 | 42.96211 | 37123 ft | 479 kts | 79° |
| 2026-04-30 10:49 | 20.06429 | 43.03083 | 37133 ft | 478 kts | 79° |
| 2026-04-30 10:50 | 20.07880 | 43.10007 | 37134 ft | 478 kts | 79° |
| 2026-04-30 10:50 | 20.09319 | 43.16885 | 37127 ft | 478 kts | 79° |
| 2026-04-30 10:51 | 20.10757 | 43.23784 | 37118 ft | 479 kts | 78° |
| 2026-04-30 10:51 | 20.12192 | 43.30670 | 37111 ft | 479 kts | 78° |
| 2026-04-30 10:52 | 20.13631 | 43.37590 | 37106 ft | 480 kts | 78° |
| 2026-04-30 10:52 | 20.15061 | 43.44492 | 37097 ft | 480 kts | 78° |
| 2026-04-30 10:53 | 20.16499 | 43.51433 | 37085 ft | 480 kts | 78° |
| 2026-04-30 10:53 | 20.17927 | 43.58351 | 37076 ft | 480 kts | 78° |
| 2026-04-30 10:54 | 20.19352 | 43.65267 | 37077 ft | 480 kts | 79° |
| 2026-04-30 10:54 | 20.21016 | 43.73383 | 37065 ft | 481 kts | 79° |
| 2026-04-30 10:55 | 20.22193 | 43.79139 | 37064 ft | 480 kts | 79° |
| 2026-04-30 10:55 | 20.23612 | 43.86072 | 37059 ft | 481 kts | 79° |
| 2026-04-30 10:56 | 20.25032 | 43.93025 | 37051 ft | 481 kts | 78° |
| 2026-04-30 10:56 | 20.26448 | 43.99968 | 37046 ft | 481 kts | 79° |
| 2026-04-30 10:57 | 20.27866 | 44.06939 | 37045 ft | 482 kts | 78° |
| 2026-04-30 10:57 | 20.29274 | 44.13869 | 37046 ft | 481 kts | 78° |
| 2026-04-30 10:58 | 20.30688 | 44.20845 | 37048 ft | 481 kts | 78° |
| 2026-04-30 10:58 | 20.32094 | 44.27799 | 37051 ft | 481 kts | 78° |
| 2026-04-30 10:59 | 20.33492 | 44.34728 | 37037 ft | 481 kts | 78° |
| 2026-04-30 10:59 | 20.34901 | 44.41730 | 37027 ft | 481 kts | 78° |
| 2026-04-30 11:00 | 20.36291 | 44.48649 | 37019 ft | 481 kts | 78° |
| 2026-04-30 11:00 | 20.37692 | 44.55637 | 37015 ft | 482 kts | 78° |
| 2026-04-30 11:01 | 20.39082 | 44.62582 | 37011 ft | 483 kts | 78° |
| 2026-04-30 11:01 | 20.40479 | 44.69597 | 37005 ft | 487 kts | 79° |
| 2026-04-30 11:02 | 20.41886 | 44.76685 | 36988 ft | 490 kts | 79° |
| 2026-04-30 11:02 | 20.43536 | 44.85004 | 36978 ft | 493 kts | 78° |
| 2026-04-30 11:03 | 20.44713 | 44.90943 | 36972 ft | 495 kts | 78° |
| 2026-04-30 11:04 | 20.46848 | 45.01744 | 36961 ft | 498 kts | 78° |
| 2026-04-30 11:04 | 20.48276 | 45.08993 | 36961 ft | 500 kts | 78° |
| 2026-04-30 11:05 | 20.49525 | 45.16265 | 36957 ft | 501 kts | 83° |
| 2026-04-30 11:05 | 20.50029 | 45.23616 | 36951 ft | 501 kts | 90° |
| 2026-04-30 11:06 | 20.49735 | 45.31047 | 36953 ft | 501 kts | 96° |
| 2026-04-30 11:06 | 20.49121 | 45.38432 | 36950 ft | 501 kts | 96° |
| 2026-04-30 11:07 | 20.48403 | 45.47044 | 36958 ft | 500 kts | 96° |
| 2026-04-30 11:07 | 20.47904 | 45.53151 | 36959 ft | 499 kts | 96° |
| 2026-04-30 11:08 | 20.47299 | 45.60554 | 36957 ft | 499 kts | 96° |
| 2026-04-30 11:08 | 20.46699 | 45.67896 | 36953 ft | 500 kts | 96° |
| 2026-04-30 11:09 | 20.46096 | 45.75265 | 36950 ft | 499 kts | 96° |
| 2026-04-30 11:09 | 20.45491 | 45.82600 | 36946 ft | 498 kts | 96° |
| 2026-04-30 11:10 | 20.44880 | 45.89950 | 36952 ft | 499 kts | 96° |
| 2026-04-30 11:10 | 20.44266 | 45.97301 | 36953 ft | 498 kts | 96° |
| 2026-04-30 11:11 | 20.43651 | 46.04613 | 36950 ft | 498 kts | 96° |
| 2026-04-30 11:11 | 20.43031 | 46.11967 | 36945 ft | 498 kts | 96° |
| 2026-04-30 11:12 | 20.42407 | 46.19327 | 36940 ft | 497 kts | 96° |
| 2026-04-30 11:12 | 20.41784 | 46.26638 | 36940 ft | 498 kts | 96° |
| 2026-04-30 11:13 | 20.41154 | 46.33990 | 36937 ft | 498 kts | 96° |
| 2026-04-30 11:13 | 20.40526 | 46.41287 | 36932 ft | 498 kts | 96° |
| 2026-04-30 11:14 | 20.39893 | 46.48602 | 36928 ft | 497 kts | 96° |
| 2026-04-30 11:14 | 20.39256 | 46.55930 | 36922 ft | 497 kts | 96° |
| 2026-04-30 11:15 | 20.38615 | 46.63260 | 36919 ft | 496 kts | 96° |
| 2026-04-30 11:15 | 20.37872 | 46.71756 | 36921 ft | 496 kts | 97° |
| 2026-04-30 11:16 | 20.37227 | 46.79065 | 36919 ft | 496 kts | 97° |
| 2026-04-30 11:16 | 20.36686 | 46.85161 | 36915 ft | 495 kts | 97° |
| 2026-04-30 11:17 | 20.36035 | 46.92446 | 36914 ft | 496 kts | 97° |
| 2026-04-30 11:17 | 20.35381 | 46.99748 | 36908 ft | 496 kts | 97° |
| 2026-04-30 11:18 | 20.34725 | 47.07027 | 36910 ft | 496 kts | 97° |
| 2026-04-30 11:18 | 20.33733 | 47.17962 | 36906 ft | 495 kts | 97° |
| 2026-04-30 11:19 | 20.33065 | 47.25274 | 36893 ft | 495 kts | 96° |
| 2026-04-30 11:19 | 20.32400 | 47.32544 | 36884 ft | 494 kts | 97° |
| 2026-04-30 11:20 | 20.31731 | 47.39823 | 36878 ft | 494 kts | 96° |
| 2026-04-30 11:20 | 20.31062 | 47.47055 | 36880 ft | 494 kts | 97° |
| 2026-04-30 11:21 | 20.30388 | 47.54315 | 36883 ft | 494 kts | 97° |
| 2026-04-30 11:21 | 20.29709 | 47.61591 | 36872 ft | 494 kts | 97° |
| 2026-04-30 11:22 | 20.29031 | 47.68841 | 36869 ft | 495 kts | 97° |
| 2026-04-30 11:22 | 20.28233 | 47.77339 | 36867 ft | 494 kts | 97° |
| 2026-04-30 11:23 | 20.27666 | 47.83355 | 36867 ft | 493 kts | 97° |
| 2026-04-30 11:24 | 20.26629 | 47.94269 | 36861 ft | 493 kts | 97° |
| 2026-04-30 11:24 | 20.25935 | 48.01518 | 36854 ft | 493 kts | 97° |
| 2026-04-30 11:25 | 20.24892 | 48.12361 | 36849 ft | 492 kts | 97° |
| 2026-04-30 11:26 | 20.23490 | 48.26837 | 36848 ft | 493 kts | 97° |
| 2026-04-30 11:26 | 20.22786 | 48.34040 | 36847 ft | 492 kts | 97° |
| 2026-04-30 11:27 | 20.22079 | 48.41272 | 36841 ft | 492 kts | 97° |
| 2026-04-30 11:27 | 20.21366 | 48.48525 | 36834 ft | 492 kts | 97° |
| 2026-04-30 11:28 | 20.20296 | 48.59356 | 36841 ft | 491 kts | 97° |
| 2026-04-30 11:29 | 20.19582 | 48.66540 | 36846 ft | 492 kts | 97° |
| 2026-04-30 11:29 | 20.18504 | 48.77374 | 36848 ft | 492 kts | 97° |
| 2026-04-30 11:30 | 20.17415 | 48.88220 | 36849 ft | 491 kts | 97° |
| 2026-04-30 11:31 | 20.16687 | 48.95429 | 36844 ft | 491 kts | 97° |
| 2026-04-30 11:31 | 20.15955 | 49.02632 | 36843 ft | 491 kts | 97° |
| 2026-04-30 11:32 | 20.15221 | 49.09835 | 36846 ft | 491 kts | 97° |
| 2026-04-30 11:32 | 20.14481 | 49.17055 | 36840 ft | 491 kts | 97° |
| 2026-04-30 11:33 | 20.13371 | 49.27855 | 36834 ft | 490 kts | 97° |
| 2026-04-30 11:33 | 20.12504 | 49.36239 | 36832 ft | 490 kts | 97° |
| 2026-04-30 11:34 | 20.11881 | 49.42229 | 36829 ft | 490 kts | 97° |
| 2026-04-30 11:34 | 20.11133 | 49.49414 | 36833 ft | 490 kts | 97° |
| 2026-04-30 11:35 | 20.10382 | 49.56599 | 36830 ft | 490 kts | 97° |
| 2026-04-30 11:35 | 20.09503 | 49.64942 | 36837 ft | 489 kts | 97° |
| 2026-04-30 11:36 | 20.08871 | 49.70954 | 36828 ft | 488 kts | 97° |
| 2026-04-30 11:36 | 20.08117 | 49.78089 | 36824 ft | 488 kts | 97° |
| 2026-04-30 11:37 | 20.07223 | 49.86475 | 36824 ft | 489 kts | 97° |
| 2026-04-30 11:37 | 20.06462 | 49.93612 | 36822 ft | 489 kts | 97° |
| 2026-04-30 11:38 | 20.05690 | 50.00799 | 36823 ft | 488 kts | 97° |
| 2026-04-30 11:38 | 20.05047 | 50.06761 | 36824 ft | 488 kts | 97° |
| 2026-04-30 11:39 | 20.04275 | 50.13876 | 36818 ft | 486 kts | 97° |
| 2026-04-30 11:39 | 20.03496 | 50.21021 | 36811 ft | 486 kts | 97° |
| 2026-04-30 11:40 | 20.02720 | 50.28108 | 36802 ft | 485 kts | 97° |
| 2026-04-30 11:40 | 20.01940 | 50.35201 | 36805 ft | 485 kts | 97° |
| 2026-04-30 11:41 | 20.01156 | 50.42318 | 36814 ft | 485 kts | 97° |
| 2026-04-30 11:41 | 20.00239 | 50.50592 | 36817 ft | 485 kts | 97° |
| 2026-04-30 11:42 | 19.99449 | 50.57704 | 36815 ft | 484 kts | 97° |
| 2026-04-30 11:42 | 19.98790 | 50.63613 | 36815 ft | 483 kts | 97° |
| 2026-04-30 11:43 | 19.98005 | 50.70651 | 36815 ft | 481 kts | 98° |
| 2026-04-30 11:43 | 19.97215 | 50.77712 | 36811 ft | 481 kts | 98° |
| 2026-04-30 11:44 | 19.96424 | 50.84731 | 36807 ft | 481 kts | 98° |
| 2026-04-30 11:44 | 19.95625 | 50.91799 | 36807 ft | 480 kts | 98° |
| 2026-04-30 11:45 | 19.94829 | 50.98811 | 36804 ft | 480 kts | 98° |
| 2026-04-30 11:45 | 19.94026 | 51.05862 | 36802 ft | 480 kts | 97° |
| 2026-04-30 11:46 | 19.93225 | 51.12883 | 36797 ft | 481 kts | 98° |
| 2026-04-30 11:46 | 19.92419 | 51.19921 | 36800 ft | 481 kts | 98° |
| 2026-04-30 11:47 | 19.91609 | 51.26947 | 36799 ft | 481 kts | 98° |
| 2026-04-30 11:47 | 19.90793 | 51.34011 | 36797 ft | 482 kts | 98° |
| 2026-04-30 11:48 | 19.89974 | 51.41074 | 36791 ft | 482 kts | 98° |
| 2026-04-30 11:48 | 19.89126 | 51.48122 | 36792 ft | 483 kts | 99° |
| 2026-04-30 11:49 | 19.88278 | 51.55184 | 36789 ft | 483 kts | 99° |
| 2026-04-30 11:49 | 19.87307 | 51.63393 | 36788 ft | 484 kts | 99° |
| 2026-04-30 11:50 | 19.86473 | 51.70484 | 36783 ft | 485 kts | 99° |
| 2026-04-30 11:50 | 19.85779 | 51.76398 | 36783 ft | 484 kts | 99° |
| 2026-04-30 11:51 | 19.84945 | 51.83458 | 36780 ft | 484 kts | 100° |
| 2026-04-30 11:51 | 19.84106 | 51.90533 | 36774 ft | 484 kts | 100° |
| 2026-04-30 11:52 | 19.83259 | 51.97619 | 36776 ft | 485 kts | 100° |
| 2026-04-30 11:52 | 19.82406 | 52.04757 | 36779 ft | 486 kts | 100° |
| 2026-04-30 11:53 | 19.81415 | 52.13004 | 36782 ft | 484 kts | 100° |
| 2026-04-30 11:53 | 19.80703 | 52.18911 | 36787 ft | 485 kts | 101° |
| 2026-04-30 11:54 | 19.79702 | 52.27175 | 36798 ft | 486 kts | 100° |
| 2026-04-30 11:54 | 19.78842 | 52.34261 | 36801 ft | 485 kts | 100° |
| 2026-04-30 11:55 | 19.78119 | 52.40203 | 36799 ft | 486 kts | 101° |
| 2026-04-30 11:55 | 19.77252 | 52.47303 | 36797 ft | 487 kts | 101° |
| 2026-04-30 11:56 | 19.76386 | 52.54371 | 36795 ft | 487 kts | 100° |
| 2026-04-30 11:56 | 19.75509 | 52.61513 | 36791 ft | 487 kts | 101° |
| 2026-04-30 11:57 | 19.74492 | 52.69788 | 36781 ft | 487 kts | 101° |
| 2026-04-30 11:57 | 19.73765 | 52.75701 | 36776 ft | 487 kts | 101° |
| 2026-04-30 11:58 | 19.72883 | 52.82812 | 36771 ft | 486 kts | 101° |
| 2026-04-30 11:58 | 19.71855 | 52.91076 | 36768 ft | 486 kts | 101° |
| 2026-04-30 11:59 | 19.70964 | 52.98209 | 36768 ft | 487 kts | 101° |
| 2026-04-30 11:59 | 19.70078 | 53.05278 | 36766 ft | 487 kts | 101° |
| 2026-04-30 12:00 | 19.69326 | 53.11250 | 36766 ft | 488 kts | 101° |
| 2026-04-30 12:00 | 19.68282 | 53.19534 | 36764 ft | 488 kts | 101° |
| 2026-04-30 12:01 | 19.67528 | 53.25478 | 36766 ft | 488 kts | 101° |
| 2026-04-30 12:01 | 19.66474 | 53.33782 | 36764 ft | 487 kts | 101° |
| 2026-04-30 12:02 | 19.65717 | 53.39727 | 36763 ft | 487 kts | 101° |
| 2026-04-30 12:02 | 19.64811 | 53.46831 | 36770 ft | 488 kts | 101° |
| 2026-04-30 12:03 | 19.63294 | 53.58666 | 36783 ft | 488 kts | 101° |
| 2026-04-30 12:04 | 19.62531 | 53.64602 | 36783 ft | 488 kts | 101° |
| 2026-04-30 12:04 | 19.61464 | 53.72908 | 36783 ft | 488 kts | 101° |
| 2026-04-30 12:05 | 19.60569 | 53.78812 | 36781 ft | 486 kts | 105° |
| 2026-04-30 12:05 | 19.58897 | 53.85673 | 36781 ft | 483 kts | 110° |
| 2026-04-30 12:06 | 19.56977 | 53.92506 | 36782 ft | 483 kts | 110° |
| 2026-04-30 12:06 | 19.55064 | 53.99321 | 36780 ft | 483 kts | 110° |
| 2026-04-30 12:07 | 19.53148 | 54.06117 | 36771 ft | 483 kts | 110° |
| 2026-04-30 12:07 | 19.50913 | 54.14029 | 36763 ft | 482 kts | 110° |
| 2026-04-30 12:08 | 19.49304 | 54.19723 | 36760 ft | 482 kts | 110° |
| 2026-04-30 12:08 | 19.47068 | 54.27628 | 36762 ft | 483 kts | 110° |
| 2026-04-30 12:09 | 19.45464 | 54.33284 | 36763 ft | 482 kts | 110° |
| 2026-04-30 12:09 | 19.43211 | 54.41232 | 36766 ft | 482 kts | 110° |
| 2026-04-30 12:10 | 19.41616 | 54.46847 | 36768 ft | 483 kts | 110° |
| 2026-04-30 12:10 | 19.39672 | 54.53681 | 36769 ft | 483 kts | 110° |
| 2026-04-30 12:11 | 19.37734 | 54.60481 | 36773 ft | 483 kts | 110° |
| 2026-04-30 12:11 | 19.35802 | 54.67255 | 36776 ft | 483 kts | 110° |
| 2026-04-30 12:12 | 19.33867 | 54.74061 | 36780 ft | 483 kts | 110° |
| 2026-04-30 12:12 | 19.31930 | 54.80843 | 36784 ft | 483 kts | 110° |
| 2026-04-30 12:13 | 19.29979 | 54.87650 | 36787 ft | 483 kts | 110° |
| 2026-04-30 12:13 | 19.28075 | 54.94284 | 36791 ft | 483 kts | 110° |
| 2026-04-30 12:14 | 19.26134 | 55.01034 | 36793 ft | 483 kts | 110° |
| 2026-04-30 12:14 | 19.24208 | 55.07727 | 36792 ft | 483 kts | 110° |
| 2026-04-30 12:15 | 19.22324 | 55.14260 | 36798 ft | 484 kts | 110° |
| 2026-04-30 12:15 | 19.20432 | 55.20813 | 36797 ft | 484 kts | 110° |
| 2026-04-30 12:16 | 19.18463 | 55.27616 | 36797 ft | 483 kts | 110° |
| 2026-04-30 12:16 | 19.16602 | 55.34039 | 36803 ft | 483 kts | 110° |
| 2026-04-30 12:17 | 19.13640 | 55.44242 | 36802 ft | 483 kts | 110° |
| 2026-04-30 12:17 | 19.11429 | 55.51846 | 36800 ft | 483 kts | 110° |
| 2026-04-30 12:18 | 19.09498 | 55.58475 | 36796 ft | 482 kts | 110° |
| 2026-04-30 12:18 | 19.07869 | 55.64068 | 36794 ft | 482 kts | 110° |
| 2026-04-30 12:19 | 19.05595 | 55.71883 | 36794 ft | 482 kts | 110° |
| 2026-04-30 12:19 | 19.03663 | 55.78486 | 36797 ft | 482 kts | 110° |
| 2026-04-30 12:20 | 19.02044 | 55.83989 | 36799 ft | 481 kts | 110° |
| 2026-04-30 12:20 | 18.99798 | 55.91615 | 36803 ft | 481 kts | 110° |
| 2026-04-30 12:21 | 18.97891 | 55.98078 | 36802 ft | 480 kts | 110° |
| 2026-04-30 12:21 | 18.96242 | 56.03663 | 36800 ft | 480 kts | 110° |
| 2026-04-30 12:22 | 18.94300 | 56.10223 | 36805 ft | 480 kts | 110° |
| 2026-04-30 12:22 | 18.92383 | 56.16687 | 36805 ft | 481 kts | 110° |
| 2026-04-30 12:23 | 18.90125 | 56.24279 | 36802 ft | 481 kts | 110° |
| 2026-04-30 12:23 | 18.88091 | 56.31033 | 36803 ft | 481 kts | 110° |
| 2026-04-30 12:24 | 18.86458 | 56.36443 | 36803 ft | 481 kts | 110° |
| 2026-04-30 12:24 | 18.84108 | 56.44272 | 36804 ft | 482 kts | 110° |
| 2026-04-30 12:25 | 18.82491 | 56.49676 | 36805 ft | 482 kts | 110° |
| 2026-04-30 12:25 | 18.80477 | 56.56401 | 36805 ft | 482 kts | 110° |
| 2026-04-30 12:26 | 18.78639 | 56.62528 | 36805 ft | 482 kts | 110° |